createdAt,value
2023-05-24T00:12:36.746Z,100.0000
2023-05-24T00:13:38.369Z,100.0000
2023-05-24T00:18:45.674Z,100.0000
2023-05-24T00:25:52.839Z,100.0000
2023-05-24T00:26:54.264Z,100.0000
2023-05-24T00:27:56.069Z,100.0000
2023-05-24T00:28:57.175Z,100.0000
2023-05-24T00:31:01.058Z,100.0000
2023-05-24T00:32:03.200Z,100.0000
2023-05-24T00:33:04.332Z,100.0000
2023-05-24T00:34:06.805Z,100.0000
2023-05-24T00:35:08.742Z,100.0000
2023-05-24T00:36:10.676Z,100.0000
2023-05-24T00:38:13.396Z,100.0000
2023-05-24T00:39:15.812Z,100.0000
2023-05-24T00:52:29.621Z,100.0000
2023-05-24T00:53:31.178Z,100.0000
2023-05-24T00:54:32.144Z,100.0000
2023-05-24T00:55:33.874Z,100.0000
2023-05-24T00:56:35.708Z,100.0000
2023-05-24T00:57:35.356Z,100.0000
2023-05-24T00:59:38.841Z,100.0000
2023-05-24T01:00:41.336Z,100.0000
2023-05-24T01:13:59.086Z,100.0000
2023-05-24T01:15:01.266Z,100.0000
2023-05-24T01:16:03.350Z,100.0000
2023-05-24T01:17:04.776Z,100.0000
2023-05-24T01:18:06.427Z,100.0000
2023-05-24T01:19:07.832Z,100.0000
2023-05-24T01:20:09.134Z,100.0000
2023-05-24T01:21:10.461Z,100.0000
2023-05-24T01:22:12.080Z,100.0000
2023-05-24T01:23:13.460Z,100.0000
2023-05-24T01:24:15.823Z,100.0000
2023-05-24T01:32:24.201Z,100.0000
2023-05-24T01:33:24.836Z,100.0000
2023-05-24T01:34:25.995Z,100.0000
2023-05-24T01:35:27.486Z,100.0000
2023-05-24T01:36:28.998Z,100.0000
2023-05-24T01:37:30.878Z,100.0000
2023-05-24T01:38:32.395Z,100.0000
2023-05-24T01:47:41.679Z,100.0000
2023-05-24T01:49:44.922Z,100.0000
2023-05-24T01:50:46.346Z,100.0000
2023-05-24T01:51:47.793Z,100.0000
2023-05-24T01:52:48.627Z,100.0000
2023-05-24T01:53:49.688Z,100.0000
2023-05-24T01:54:51.147Z,100.0000
2023-05-24T01:55:52.140Z,100.0000
2023-05-24T01:56:52.888Z,100.0000
2023-05-24T01:57:54.024Z,100.0000
2023-05-24T01:59:56.105Z,100.0000
2023-05-24T02:00:57.127Z,100.0000
2023-05-24T02:02:59.383Z,100.0000
2023-05-24T02:03:59.802Z,100.0000
2023-05-24T02:05:00.763Z,100.0000
2023-05-24T02:06:01.900Z,100.0000
2023-05-24T02:07:02.838Z,100.0000
2023-05-24T02:09:07.930Z,100.0000
2023-05-24T02:18:16.657Z,100.0000
2023-05-24T02:19:18.505Z,100.0000
2023-05-24T02:20:19.880Z,100.0000
2023-05-24T02:21:21.078Z,100.0000
2023-05-24T02:23:24.862Z,100.0000
2023-05-24T02:33:39.166Z,100.0000
2023-05-24T02:34:39.469Z,100.0000
2023-05-24T02:35:40.521Z,100.0000
2023-05-24T02:37:43.979Z,100.0000
2023-05-24T02:38:46.062Z,100.0000
2023-05-24T02:47:56.907Z,100.0000
2023-05-24T02:55:05.458Z,100.0000
2023-05-24T02:56:07.362Z,100.0000
2023-05-24T02:57:09.158Z,100.0000
2023-05-24T03:12:30.160Z,100.0000
2023-05-24T03:13:31.446Z,100.0000
2023-05-24T03:14:31.930Z,100.0000
2023-05-24T03:15:33.687Z,100.0000
2023-05-24T03:16:36.037Z,100.0000
2023-05-24T03:17:38.293Z,100.0000
2023-05-24T03:18:38.076Z,100.0000
2023-05-24T03:19:40.554Z,100.0000
2023-05-24T03:31:53.504Z,100.0000
2023-05-24T03:32:54.947Z,100.0000
2023-05-24T03:33:56.199Z,100.0000
2023-05-24T03:34:57.222Z,100.0000
2023-05-24T03:35:58.641Z,100.0000
2023-05-24T03:36:59.823Z,100.0000
2023-05-24T03:38:00.902Z,100.0000
2023-05-24T03:39:02.538Z,100.0000
2023-05-24T03:40:04.075Z,100.0000
2023-05-24T03:41:05.326Z,100.0000
2023-05-24T03:42:05.927Z,100.0000
2023-05-24T03:43:07.229Z,100.0000
2023-05-24T03:44:07.610Z,100.0000
2023-05-24T03:45:09.032Z,100.0000
2023-05-24T03:46:09.426Z,100.0000
2023-05-24T03:48:12.662Z,100.0000
2023-05-24T03:49:14.870Z,100.0000
2023-05-24T03:59:28.230Z,100.0000
2023-05-24T04:00:29.828Z,100.0000
2023-05-24T04:09:39.591Z,100.0000
2023-05-24T04:10:41.597Z,100.0000
2023-05-24T04:11:42.733Z,100.0000
2023-05-24T04:12:43.852Z,100.0000
2023-05-24T04:13:44.423Z,100.0000
2023-05-24T04:14:45.683Z,100.0000
2023-05-24T04:16:48.903Z,100.0000
2023-05-24T04:17:51.799Z,100.0000
2023-05-24T04:18:53.174Z,100.0000
2023-05-24T04:19:54.454Z,100.0000
2023-05-24T04:20:56.261Z,100.0000
2023-05-24T04:21:58.075Z,100.0000
2023-05-24T04:22:59.111Z,100.0000
2023-05-24T04:24:01.558Z,100.0000
2023-05-24T04:25:03.144Z,100.0000
2023-05-24T04:26:05.210Z,100.0000
2023-05-24T04:28:07.878Z,100.0000
2023-05-24T04:29:09.537Z,100.0000
2023-05-24T04:30:10.926Z,100.0000
2023-05-24T04:31:11.096Z,100.0000
2023-05-24T04:32:12.915Z,100.0000
2023-05-24T04:33:14.921Z,100.0000
2023-05-24T04:36:15.949Z,100.0000
2023-05-24T04:41:22.100Z,100.0000
2023-05-24T04:42:24.105Z,100.0000
2023-05-24T04:43:24.195Z,100.0000
2023-05-24T04:44:25.104Z,100.0000
2023-05-24T04:45:26.837Z,100.0000
2023-05-24T04:46:29.094Z,100.0000
2023-05-24T04:47:29.276Z,100.0000
2023-05-24T04:48:31.199Z,100.0000
2023-05-24T04:49:32.699Z,100.0000
2023-05-24T04:50:34.845Z,100.0000
2023-05-24T04:51:36.967Z,100.0000
2023-05-24T04:52:39.432Z,100.0000
2023-05-24T04:53:40.312Z,100.0000
2023-05-24T04:54:41.340Z,100.0000
2023-05-24T04:55:44.054Z,100.0000
2023-05-24T04:56:46.080Z,100.0000
2023-05-24T04:57:46.788Z,100.0000
2023-05-24T04:59:49.593Z,100.0000
2023-05-24T05:05:55.832Z,100.0000
2023-05-24T05:06:58.538Z,100.0000
2023-05-24T05:07:59.153Z,100.0000
2023-05-24T05:10:00.666Z,100.0000
2023-05-24T05:11:01.923Z,100.0000
2023-05-24T05:12:02.943Z,100.0000
2023-05-24T05:13:04.044Z,100.0000
2023-05-24T05:14:05.192Z,100.0000
2023-05-24T05:15:06.141Z,100.0000
2023-05-24T05:16:07.244Z,100.0000
2023-05-24T05:17:08.192Z,100.0000
2023-05-24T05:18:09.250Z,100.0000
2023-05-24T05:20:13.286Z,100.0000
2023-05-24T05:21:14.338Z,100.0000
2023-05-24T05:22:16.147Z,100.0000
2023-05-24T05:23:18.154Z,100.0000
2023-05-24T05:24:19.233Z,100.0000
2023-05-24T05:26:21.502Z,100.0000
2023-05-24T05:27:23.271Z,100.0000
2023-05-24T05:28:24.202Z,100.0000
2023-05-24T05:29:25.227Z,100.0000
2023-05-24T05:30:26.806Z,100.0000
2023-05-24T05:31:28.528Z,100.0000
2023-05-24T05:32:30.612Z,100.0000
2023-05-24T05:33:31.236Z,100.0000
2023-05-24T05:34:32.279Z,100.0000
2023-05-24T05:35:33.176Z,100.0000
2023-05-24T05:36:34.823Z,100.0000
2023-05-24T05:37:35.032Z,100.0000
2023-05-24T05:40:39.166Z,100.0000
2023-05-24T05:41:40.233Z,100.0000
2023-05-24T05:42:42.045Z,100.0000
2023-05-24T05:43:43.299Z,100.0000
2023-05-24T05:44:45.775Z,100.0000
2023-05-24T05:58:05.620Z,100.0000
2023-05-24T05:59:07.939Z,100.0000
2023-05-24T06:00:09.927Z,100.0000
2023-05-24T06:07:17.270Z,100.0000
2023-05-24T06:08:19.121Z,100.0000
2023-05-24T06:14:24.253Z,100.0000
2023-05-24T06:19:30.731Z,100.0000
2023-05-24T06:20:33.224Z,99.9708
2023-05-24T06:26:41.053Z,99.9867
2023-05-24T06:27:43.310Z,99.9057
2023-05-24T06:28:43.851Z,100.0000
2023-05-24T06:29:45.253Z,100.0000
2023-05-24T06:30:47.070Z,100.0000
2023-05-24T06:31:48.643Z,100.0000
2023-05-24T06:36:54.284Z,100.0000
2023-05-24T06:37:55.754Z,100.0000
2023-05-24T06:38:57.527Z,100.0000
2023-05-24T06:39:59.232Z,100.0000
2023-05-24T06:41:01.593Z,100.0000
2023-05-24T06:42:01.664Z,100.0000
2023-05-24T06:43:03.411Z,100.0000
2023-05-24T06:44:04.591Z,100.0000
2023-05-24T06:45:06.289Z,100.0000
2023-05-24T06:46:08.567Z,100.0000
2023-05-24T06:53:15.683Z,100.0000
2023-05-24T07:01:24.578Z,98.0423
2023-05-24T07:02:26.995Z,98.3083
2023-05-24T07:03:28.836Z,98.8450
2023-05-24T07:04:30.330Z,98.1003
2023-05-24T07:05:31.330Z,97.2892
2023-05-24T07:06:32.925Z,97.4693
2023-05-24T07:07:33.937Z,96.7533
2023-05-24T07:08:35.517Z,95.9069
2023-05-24T07:09:37.438Z,96.5316
2023-05-24T07:10:40.252Z,97.3075
2023-05-24T07:23:55.064Z,98.4963
2023-05-24T07:44:14.709Z,98.3835
2023-05-24T07:45:16.058Z,98.4719
2023-05-24T07:46:17.965Z,98.3930
2023-05-24T07:47:19.777Z,98.6128
2023-05-24T07:48:21.804Z,98.6011
2023-05-24T07:49:22.092Z,98.1353
2023-05-24T07:50:23.300Z,98.1329
2023-05-24T07:51:24.636Z,98.1537
2023-05-24T07:52:25.625Z,97.9612
2023-05-24T07:53:27.477Z,98.3600
2023-05-24T07:54:28.572Z,98.3989
2023-05-24T07:55:29.891Z,98.9380
2023-05-24T07:56:31.030Z,98.4364
2023-05-24T07:57:33.457Z,98.0757
2023-05-24T07:58:34.517Z,97.9477
2023-05-24T08:00:37.357Z,97.6459
2023-05-24T08:01:38.610Z,97.6707
2023-05-24T08:03:42.723Z,97.7087
2023-05-24T08:04:44.424Z,97.0249
2023-05-24T08:05:46.146Z,97.1459
2023-05-24T08:07:49.786Z,97.0251
2023-05-24T08:08:50.835Z,96.3839
2023-05-24T08:09:52.480Z,96.2517
2023-05-24T08:10:54.763Z,95.3536
2023-05-24T08:11:57.336Z,95.9567
2023-05-24T08:13:58.164Z,95.7204
2023-05-24T08:14:59.781Z,96.0492
2023-05-24T08:16:00.764Z,96.2944
2023-05-24T08:17:02.227Z,96.5234
2023-05-24T08:18:05.776Z,96.1749
2023-05-24T08:20:14.484Z,96.6886
2023-05-24T08:21:43.257Z,95.9276
2023-05-24T08:31:21.260Z,94.1322
2023-05-24T08:34:25.428Z,93.8681
2023-05-24T08:35:27.013Z,93.4221
2023-05-24T08:36:28.574Z,93.7945
2023-05-24T08:37:29.597Z,92.8944
2023-05-24T08:38:30.818Z,92.5518
2023-05-24T08:39:31.900Z,92.3212
2023-05-24T08:40:33.177Z,92.1314
2023-05-24T08:41:34.663Z,93.3079
2023-05-24T08:42:36.048Z,93.4217
2023-05-24T08:43:36.792Z,92.5989
2023-05-24T08:44:38.141Z,92.8463
2023-05-24T08:45:39.293Z,92.9299
2023-05-24T08:46:40.773Z,93.9166
2023-05-24T08:47:41.903Z,92.6930
2023-05-24T08:48:43.306Z,93.1437
2023-05-24T08:49:44.147Z,92.9184
2023-05-24T08:51:47.512Z,92.7216
2023-05-24T08:52:47.532Z,93.7174
2023-05-24T08:53:49.399Z,93.0632
2023-05-24T08:54:51.307Z,94.0016
2023-05-24T08:55:53.073Z,94.2837
2023-05-24T08:58:58.399Z,93.0878
2023-05-24T09:00:01.174Z,92.9320
2023-05-24T09:07:09.358Z,92.5926
2023-05-24T09:08:11.208Z,93.8316
2023-05-24T09:09:12.151Z,93.2480
2023-05-24T09:11:14.547Z,93.7905
2023-05-24T09:14:17.607Z,92.6950
2023-05-24T09:15:18.516Z,91.7112
2023-05-24T09:16:19.799Z,92.7843
2023-05-24T09:17:20.867Z,92.0694
2023-05-24T09:18:22.964Z,93.7178
2023-05-24T09:19:24.111Z,93.1724
2023-05-24T09:20:26.161Z,92.5254
2023-05-24T09:21:26.999Z,91.5428
2023-05-24T09:24:31.621Z,92.3802
2023-05-24T09:25:32.701Z,91.4064
2023-05-24T09:27:35.913Z,91.4988
2023-05-24T09:28:35.716Z,91.9062
2023-05-24T09:34:43.244Z,90.1029
2023-05-24T09:35:45.018Z,91.6499
2023-05-24T09:36:46.085Z,90.8027
2023-05-24T09:37:48.170Z,89.7919
2023-05-24T09:38:49.232Z,90.5191
2023-05-24T09:39:50.546Z,90.9944
2023-05-24T09:40:52.785Z,92.5579
2023-05-24T09:41:54.715Z,89.8109
2023-05-24T09:42:55.857Z,89.0507
2023-05-24T09:44:59.369Z,89.6370
2023-05-24T09:46:00.734Z,89.8571
2023-05-24T09:47:03.217Z,88.2561
2023-05-24T09:48:05.080Z,88.7881
2023-05-24T09:49:06.082Z,89.2581
2023-05-24T09:50:07.590Z,88.6039
2023-05-24T09:51:09.341Z,88.9246
2023-05-24T09:52:10.460Z,88.4330
2023-05-24T09:53:11.664Z,88.5355
2023-05-24T09:54:13.542Z,87.2627
2023-05-24T09:55:13.979Z,86.4566
2023-05-24T09:57:16.542Z,88.8155
2023-05-24T09:58:18.166Z,87.2536
2023-05-24T09:59:18.407Z,87.0069
2023-05-24T10:01:20.567Z,86.9723
2023-05-24T10:02:22.145Z,87.1953
2023-05-24T10:03:22.295Z,87.1930
2023-05-24T10:05:24.823Z,84.8017
2023-05-24T10:06:26.276Z,86.2201
2023-05-24T10:07:27.804Z,85.0008
2023-05-24T10:08:29.085Z,85.6549
2023-05-24T10:09:30.357Z,86.3383
2023-05-24T10:10:31.554Z,85.3981
2023-05-24T10:11:32.638Z,85.2788
2023-05-24T10:12:33.760Z,85.3373
2023-05-24T10:15:37.782Z,84.9039
2023-05-24T10:16:38.969Z,85.0778
2023-05-24T10:17:40.107Z,84.4162
2023-05-24T10:18:41.375Z,84.6682
2023-05-24T10:19:42.485Z,84.7504
2023-05-24T10:20:45.147Z,85.1330
2023-05-24T10:21:44.674Z,85.5979
2023-05-24T10:22:45.828Z,85.6879
2023-05-24T10:23:46.936Z,85.4312
2023-05-24T10:24:47.214Z,85.5687
2023-05-24T10:25:48.364Z,85.1747
2023-05-24T10:26:50.084Z,85.3831
2023-05-24T10:27:50.444Z,85.5046
2023-05-24T10:28:51.783Z,85.7806
2023-05-24T10:29:52.361Z,85.4233
2023-05-24T10:30:53.680Z,86.2964
2023-05-24T10:31:55.423Z,86.8944
2023-05-24T10:32:57.464Z,84.9612
2023-05-24T10:37:01.275Z,85.8462
2023-05-24T10:38:02.453Z,85.7890
2023-05-24T10:39:02.516Z,86.8371
2023-05-24T10:40:03.858Z,86.4975
2023-05-24T10:41:05.100Z,85.9822
2023-05-24T10:42:10.124Z,86.6435
2023-05-24T11:03:28.072Z,88.0353
2023-05-24T11:04:28.586Z,87.9088
2023-05-24T11:05:29.697Z,87.1721
2023-05-24T11:06:30.644Z,87.0027
2023-05-24T11:07:31.657Z,88.3822
2023-05-24T11:08:32.793Z,89.1594
2023-05-24T11:09:33.125Z,88.6638
2023-05-24T11:10:34.296Z,88.2279
2023-05-24T11:11:35.399Z,87.8779
2023-05-24T11:12:36.404Z,87.6624
2023-05-24T11:13:37.476Z,87.4280
2023-05-24T11:14:38.605Z,88.8654
2023-05-24T11:15:39.630Z,87.5364
2023-05-24T11:16:41.559Z,86.2014
2023-05-24T11:21:49.513Z,87.0806
2023-05-24T11:22:50.470Z,87.1352
2023-05-24T11:23:51.432Z,87.0894
2023-05-24T11:24:52.420Z,87.1912
2023-05-24T11:25:53.389Z,87.8334
2023-05-24T11:26:54.402Z,87.0951
2023-05-24T11:28:56.283Z,86.3238
2023-05-24T11:29:57.279Z,86.1461
2023-05-24T11:30:58.296Z,85.9227
2023-05-24T11:31:59.378Z,85.7322
2023-05-24T11:33:00.637Z,86.1935
2023-05-24T11:34:01.604Z,85.8024
2023-05-24T11:35:02.613Z,86.4800
2023-05-24T11:37:04.825Z,85.7142
2023-05-24T11:39:07.876Z,85.6779
2023-05-24T11:40:09.103Z,85.9226
2023-05-24T11:41:10.539Z,85.5618
2023-05-24T11:42:11.745Z,84.6183
2023-05-24T11:43:16.957Z,85.1654
2023-05-24T11:48:18.965Z,84.9378
2023-05-24T11:49:20.062Z,85.0157
2023-05-24T11:50:21.955Z,84.1510
2023-05-24T11:51:22.992Z,84.3217
2023-05-24T11:52:24.080Z,85.0200
2023-05-24T11:53:25.109Z,84.2730
2023-05-24T11:54:26.254Z,84.2388
2023-05-24T11:57:29.527Z,84.3868
2023-05-24T11:58:30.503Z,83.4392
2023-05-24T11:59:31.432Z,83.2493
2023-05-24T12:00:31.804Z,82.0712
2023-05-24T12:01:32.958Z,83.0357
2023-05-24T12:02:34.162Z,83.4056
2023-05-24T12:03:35.941Z,82.3230
2023-05-24T12:04:36.465Z,82.9632
2023-05-24T12:05:37.744Z,83.0026
2023-05-24T12:06:38.931Z,83.3502
2023-05-24T12:07:39.900Z,83.5229
2023-05-24T12:08:41.022Z,83.6240
2023-05-24T12:11:44.988Z,83.2489
2023-05-24T12:12:46.609Z,81.4474
2023-05-24T12:16:51.399Z,79.1481
2023-05-24T12:17:52.657Z,79.1675
2023-05-24T12:19:54.428Z,82.0789
2023-05-24T12:20:55.468Z,81.0040
2023-05-24T12:23:59.483Z,79.9043
2023-05-24T12:25:00.518Z,78.7531
2023-05-24T12:26:01.516Z,78.8727
2023-05-24T12:27:02.570Z,78.4993
2023-05-24T12:28:03.559Z,80.6931
2023-05-24T12:29:04.087Z,79.6356
2023-05-24T12:30:04.672Z,77.9981
2023-05-24T12:31:06.735Z,77.0858
2023-05-24T12:32:07.848Z,76.7255
2023-05-24T12:33:09.029Z,78.1774
2023-05-24T12:34:10.102Z,78.9480
2023-05-24T12:35:12.094Z,77.4600
2023-05-24T12:36:13.088Z,78.6614
2023-05-24T12:38:14.634Z,79.5648
2023-05-24T12:39:15.924Z,76.2675
2023-05-24T12:40:16.988Z,76.6037
2023-05-24T12:41:18.040Z,78.6062
2023-05-24T12:42:19.022Z,78.9130
2023-05-24T12:43:19.476Z,78.3035
2023-05-24T12:44:21.512Z,77.7759
2023-05-24T12:45:23.608Z,78.5554
2023-05-24T12:46:24.717Z,79.2298
2023-05-24T12:47:26.933Z,77.9006
2023-05-24T12:48:28.004Z,78.6484
2023-05-24T12:49:30.296Z,79.7544
2023-05-24T12:50:31.423Z,79.2901
2023-05-24T12:51:32.693Z,79.3153
2023-05-24T12:52:33.993Z,78.2849
2023-05-24T12:53:35.154Z,79.2024
2023-05-24T12:54:37.288Z,78.5597
2023-05-24T12:55:38.299Z,78.7864
2023-05-24T12:57:40.450Z,79.7197
2023-05-24T12:58:41.639Z,78.4814
2023-05-24T12:59:42.687Z,78.2435
2023-05-24T13:00:45.024Z,76.6609
2023-05-24T13:01:46.457Z,77.0493
2023-05-24T13:02:47.861Z,77.5622
2023-05-24T13:03:48.865Z,79.6448
2023-05-24T13:04:50.151Z,79.1019
2023-05-24T13:05:51.283Z,79.4530
2023-05-24T13:06:52.964Z,79.8983
2023-05-24T13:07:54.005Z,80.0088
2023-05-24T13:08:55.833Z,80.2083
2023-05-24T13:09:57.095Z,78.2030
2023-05-24T13:10:58.287Z,81.5368
2023-05-24T13:13:00.315Z,80.0129
2023-05-24T13:14:01.380Z,79.8855
2023-05-24T13:15:02.478Z,79.6512
2023-05-24T13:16:04.579Z,80.5547
2023-05-24T13:17:05.728Z,80.5103
2023-05-24T13:18:06.915Z,81.9544
2023-05-24T13:19:07.932Z,83.5710
2023-05-24T13:20:10.000Z,81.9163
2023-05-24T13:21:12.844Z,82.6140
2023-05-24T13:34:23.914Z,80.8543
2023-05-24T13:35:25.103Z,80.7443
2023-05-24T13:36:26.316Z,82.4332
2023-05-24T13:37:27.490Z,83.3911
2023-05-24T13:38:28.718Z,82.6757
2023-05-24T13:39:30.068Z,82.1794
2023-05-24T13:40:31.106Z,83.0060
2023-05-24T13:41:32.293Z,82.4388
2023-05-24T13:42:33.604Z,82.5135
2023-05-24T13:43:33.764Z,82.7530
2023-05-24T13:44:34.794Z,83.0367
2023-05-24T13:45:35.949Z,83.9480
2023-05-24T13:46:37.365Z,82.9653
2023-05-24T13:48:39.710Z,83.1362
2023-05-24T13:49:40.906Z,84.3403
2023-05-24T13:50:42.617Z,83.9961
2023-05-24T13:51:44.121Z,84.5248
2023-05-24T13:52:45.291Z,84.9624
2023-05-24T13:53:46.488Z,84.5783
2023-05-24T13:54:47.747Z,84.1192
2023-05-24T13:55:48.840Z,83.8336
2023-05-24T13:57:52.853Z,83.8134
2023-05-24T13:58:54.029Z,84.1047
2023-05-24T13:59:55.197Z,83.9485
2023-05-24T14:00:56.616Z,84.4769
2023-05-24T14:01:57.951Z,83.9638
2023-05-24T14:02:59.743Z,84.6367
2023-05-24T14:04:00.784Z,84.8579
2023-05-24T14:05:25.022Z,84.9720
2023-05-24T14:17:43.248Z,85.2653
2023-05-24T14:18:44.439Z,84.9507
2023-05-24T14:19:45.423Z,86.5245
2023-05-24T14:20:46.656Z,85.8403
2023-05-24T14:21:47.693Z,86.2207
2023-05-24T14:22:48.839Z,85.8054
2023-05-24T14:23:49.866Z,84.3964
2023-05-24T14:24:49.870Z,83.9362
2023-05-24T14:25:50.890Z,85.0347
2023-05-24T14:26:51.358Z,84.7323
2023-05-24T14:27:52.310Z,84.0227
2023-05-24T14:28:57.197Z,83.8802
2023-05-24T14:31:55.792Z,84.4375
2023-05-24T14:32:57.177Z,83.0609
2023-05-24T14:33:58.525Z,83.3006
2023-05-24T14:34:59.772Z,83.2280
2023-05-24T14:36:00.891Z,82.7697
2023-05-24T14:37:02.060Z,83.4116
2023-05-24T14:38:03.217Z,83.8986
2023-05-24T14:39:04.374Z,82.6282
2023-05-24T14:41:06.824Z,83.4934
2023-05-24T14:42:07.951Z,81.4823
2023-05-24T14:43:09.089Z,83.3101
2023-05-24T14:44:09.659Z,81.7156
2023-05-24T14:45:10.383Z,82.5200
2023-05-24T14:46:11.656Z,83.0187
2023-05-24T14:48:14.379Z,82.1883
2023-05-24T14:49:15.820Z,82.1809
2023-05-24T14:50:17.987Z,83.4691
2023-05-24T14:51:19.070Z,83.7531
2023-05-24T14:52:20.426Z,82.8099
2023-05-24T14:53:21.480Z,81.8599
2023-05-24T14:54:23.575Z,81.8753
2023-05-24T14:55:24.624Z,83.0893
2023-05-24T14:56:25.649Z,84.2037
2023-05-24T14:57:26.616Z,83.3264
2023-05-24T14:59:28.694Z,83.3090
2023-05-24T15:00:29.791Z,83.8645
2023-05-24T15:01:31.101Z,84.2051
2023-05-24T15:02:33.216Z,83.6780
2023-05-24T15:03:34.750Z,84.2816
2023-05-24T15:04:36.082Z,83.6815
2023-05-24T15:05:37.555Z,83.0415
2023-05-24T15:06:38.733Z,83.2980
2023-05-24T15:07:39.821Z,84.0587
2023-05-24T15:08:40.840Z,83.3855
2023-05-24T15:09:41.463Z,82.7802
2023-05-24T15:10:43.077Z,84.1884
2023-05-24T15:11:44.330Z,86.3669
2023-05-24T15:12:45.310Z,84.7225
2023-05-24T15:13:46.367Z,83.4789
2023-05-24T15:14:48.268Z,83.7200
2023-05-24T15:15:50.299Z,84.0625
2023-05-24T15:16:51.523Z,84.0956
2023-05-24T15:17:52.697Z,83.5477
2023-05-24T15:18:53.924Z,83.9862
2023-05-24T15:19:55.106Z,83.7448
2023-05-24T15:20:56.715Z,84.4795
2023-05-24T15:21:58.289Z,85.4887
2023-05-24T15:22:59.620Z,84.4581
2023-05-24T15:48:21.623Z,84.4961
2023-05-24T15:49:22.766Z,84.7657
2023-05-24T15:52:01.069Z,82.8225
2023-05-24T16:03:05.457Z,86.5611
2023-05-24T16:04:05.760Z,83.2212
2023-05-24T16:05:07.624Z,81.8300
2023-05-24T16:06:09.573Z,83.3943
2023-05-24T16:07:10.793Z,85.6446
2023-05-24T16:08:12.097Z,86.6348
2023-05-24T16:09:13.610Z,85.5851
2023-05-24T16:10:14.867Z,87.7463
2023-05-24T16:11:15.303Z,87.4144
2023-05-24T16:12:16.697Z,85.9944
2023-05-24T16:13:17.896Z,85.3977
2023-05-24T16:14:19.056Z,83.7521
2023-05-24T16:15:20.272Z,84.5930
2023-05-24T16:16:22.324Z,84.8721
2023-05-24T16:17:23.429Z,83.5640
2023-05-24T16:18:24.239Z,82.7735
2023-05-24T16:20:26.673Z,85.4376
2023-05-24T16:21:28.628Z,84.9584
2023-05-24T16:22:29.602Z,83.0804
2023-05-24T16:23:30.066Z,82.9620
2023-05-24T16:24:30.861Z,84.2951
2023-05-24T16:25:31.876Z,83.6247
2023-05-24T16:26:32.997Z,82.5177
2023-05-24T16:27:35.071Z,82.2462
2023-05-24T16:28:36.481Z,81.9371
2023-05-24T16:29:37.723Z,82.6916
2023-05-24T16:30:38.938Z,84.0938
2023-05-24T16:31:40.223Z,83.9855
2023-05-24T16:32:40.988Z,84.3023
2023-05-24T16:33:42.035Z,83.6282
2023-05-24T16:34:56.738Z,82.5582
2023-05-24T16:36:13.753Z,84.2053
2023-05-24T16:37:14.033Z,83.3908
2023-05-24T16:38:15.327Z,83.1850
2023-05-24T16:39:16.513Z,82.9115
2023-05-24T16:40:17.672Z,84.1033
2023-05-24T16:41:18.780Z,85.3724
2023-05-24T16:42:19.832Z,84.1540
2023-05-24T16:43:21.979Z,82.1273
2023-05-24T16:44:23.059Z,82.5044
2023-05-24T16:45:24.313Z,81.7442
2023-05-24T16:46:24.882Z,81.5996
2023-05-24T16:47:30.153Z,82.7408
2023-05-24T16:49:27.776Z,80.3812
2023-05-24T16:50:28.664Z,82.6804
2023-05-24T16:51:29.581Z,82.2227
2023-05-24T16:52:30.577Z,81.8479
2023-05-24T16:53:31.489Z,82.6752
2023-05-24T16:54:32.457Z,82.2112
2023-05-24T16:57:36.440Z,81.2206
2023-05-24T16:58:37.384Z,81.4012
2023-05-24T16:59:38.331Z,81.3610
2023-05-24T17:00:39.315Z,80.3746
2023-05-24T17:01:40.579Z,80.7524
2023-05-24T17:03:42.741Z,81.9455
2023-05-24T17:04:43.809Z,79.7831
2023-05-24T17:05:44.933Z,80.3340
2023-05-24T17:06:46.052Z,80.1755
2023-05-24T17:07:47.471Z,81.6330
2023-05-24T17:10:50.579Z,81.3930
2023-05-24T17:11:51.665Z,84.7096
2023-05-24T17:12:52.746Z,81.2407
2023-05-24T17:13:53.739Z,82.8312
2023-05-24T17:14:55.667Z,83.9292
2023-05-24T17:15:56.653Z,82.9371
2023-05-24T17:16:57.668Z,81.9187
2023-05-24T17:17:58.801Z,83.7474
2023-05-24T17:19:00.320Z,84.8135
2023-05-24T17:20:01.820Z,82.5542
2023-05-24T17:21:03.880Z,82.2071
2023-05-24T17:22:04.908Z,84.9811
2023-05-24T17:23:05.995Z,81.1954
2023-05-24T17:24:06.744Z,83.0065
2023-05-24T17:25:07.887Z,83.6297
2023-05-24T17:26:09.115Z,83.6934
2023-05-24T17:27:10.642Z,85.8955
2023-05-24T17:28:12.201Z,82.9098
2023-05-24T17:29:13.705Z,82.9017
2023-05-24T17:30:15.122Z,82.9820
2023-05-24T17:31:16.403Z,83.8343
2023-05-24T17:32:17.554Z,84.0190
2023-05-24T17:33:18.920Z,82.5888
2023-05-24T17:34:20.420Z,85.8379
2023-05-24T17:35:21.811Z,85.5833
2023-05-24T17:36:23.214Z,81.6494
2023-05-24T17:39:27.508Z,82.3929
2023-05-24T17:40:27.941Z,82.1839
2023-05-24T17:41:29.132Z,82.5298
2023-05-24T17:42:30.732Z,81.5789
2023-05-24T17:43:32.096Z,85.3188
2023-05-24T17:44:35.052Z,82.4440
2023-05-24T17:56:46.902Z,83.2852
2023-05-24T17:57:48.231Z,82.7133
2023-05-24T17:59:50.806Z,80.5755
2023-05-24T18:00:54.743Z,81.2382
2023-05-24T18:11:06.408Z,82.0546
2023-05-24T18:14:07.228Z,80.4341
2023-05-24T18:15:08.982Z,80.9863
2023-05-24T18:16:09.970Z,80.9953
2023-05-24T18:17:12.129Z,81.9486
2023-05-24T18:18:13.404Z,81.5229
2023-05-24T18:19:15.669Z,82.0885
2023-05-24T18:20:16.613Z,82.8862
2023-05-24T18:21:18.448Z,82.9823
2023-05-24T18:22:20.559Z,83.7207
2023-05-24T18:23:23.089Z,85.9414
2023-05-24T18:24:24.050Z,82.4928
2023-05-24T18:26:27.197Z,84.5425
2023-05-24T18:27:28.806Z,82.5611
2023-05-24T18:28:30.283Z,83.0039
2023-05-24T18:30:33.900Z,84.0951
2023-05-24T18:31:34.841Z,85.0031
2023-05-24T18:33:38.233Z,84.2500
2023-05-24T18:34:39.202Z,83.6217
2023-05-24T18:38:44.452Z,85.9402
2023-05-24T18:48:52.663Z,89.9073
2023-05-24T18:56:02.099Z,87.7421
2023-05-24T18:57:03.208Z,86.3698
2023-05-24T18:58:04.102Z,86.8947
2023-05-24T18:59:05.023Z,85.4122
2023-05-24T19:00:05.063Z,86.0803
2023-05-24T19:01:08.261Z,88.7971
2023-05-24T19:02:09.453Z,86.7371
2023-05-24T19:03:11.643Z,86.3575
2023-05-24T19:05:11.217Z,84.9757
2023-05-24T19:06:12.891Z,88.5129
2023-05-24T19:07:13.948Z,89.9322
2023-05-24T19:08:14.361Z,87.9850
2023-05-24T19:09:15.281Z,87.0313
2023-05-24T19:10:16.215Z,87.9087
2023-05-24T19:12:20.327Z,88.4514
2023-05-24T19:13:21.945Z,89.5191
2023-05-24T19:15:25.208Z,85.8263
2023-05-24T19:16:27.683Z,85.9026
2023-05-24T19:22:34.930Z,87.7603
2023-05-24T19:23:36.424Z,85.8953
2023-05-24T19:24:37.795Z,84.7458
2023-05-24T19:25:42.451Z,85.9368
2023-05-24T19:26:39.375Z,85.9161
2023-05-24T19:27:58.596Z,85.5531
2023-05-24T19:40:25.723Z,83.9507
2023-05-24T19:41:27.887Z,84.3294
2023-05-24T19:42:29.304Z,84.6290
2023-05-24T19:43:30.468Z,85.0302
2023-05-24T19:44:32.088Z,84.9714
2023-05-24T19:45:34.133Z,84.6962
2023-05-24T19:46:35.461Z,85.2007
2023-05-24T19:48:37.704Z,86.2189
2023-05-24T19:49:39.246Z,86.0140
2023-05-24T19:50:40.152Z,86.9965
2023-05-24T19:51:41.666Z,86.8230
2023-05-24T19:52:43.318Z,88.0238
2023-05-24T19:53:45.528Z,87.6301
2023-05-24T19:54:47.329Z,87.3713
2023-05-24T20:00:54.167Z,88.5559
2023-05-24T20:01:55.567Z,88.6025
2023-05-24T20:02:56.824Z,88.7453
2023-05-24T20:05:00.507Z,88.6510
2023-05-24T20:06:02.383Z,88.8108
2023-05-24T20:14:11.603Z,88.1278
2023-05-24T20:15:12.667Z,87.7951
2023-05-24T20:18:17.256Z,88.2382
2023-05-24T20:19:18.879Z,88.2989
2023-05-24T20:20:20.366Z,87.3456
2023-05-24T20:21:21.272Z,87.8728
2023-05-24T20:22:22.130Z,88.8340
2023-05-24T20:23:23.890Z,89.1851
2023-05-24T20:24:25.771Z,88.6493
2023-05-24T20:25:27.176Z,88.1613
2023-05-24T20:37:39.341Z,91.7769
2023-05-24T20:39:42.480Z,92.0905
2023-05-24T20:40:43.464Z,92.8363
2023-05-24T20:41:45.099Z,91.1854
2023-05-24T20:42:45.987Z,91.8519
2023-05-24T20:43:47.360Z,92.8981